ACA600 CYYZ-CYHZ
Flight info
| Callsign | ACA600 |
|---|---|
| Flight time | 1h 42m |
| Altitude | 37000 |
| Route | DEDKI5 OLABA Q951 TALNO Q929 TOXAL DCT EBONY FUNDY5 |
| Aircraft | B38M/M-SDE1FGHILORVWXY/HB1 |
Departure
| Time | 2026-05-05 10:32 |
|---|---|
| Airport | Toronto Pearson International Airport (CYYZ) |
Arrival
| Time | 2026-05-05 12:15 |
|---|---|
| Airport | Halifax / Stanfield International Airport (CYHZ) |
| Time | Latitude | Longitude | Altitude | Speed | Heading |
|---|---|---|---|---|---|
| 2026-05-05 10:02 | 43.68002 | -79.61468 | 561 ft | 0 kts | 316° |
| 2026-05-05 10:17 | 43.67991 | -79.61454 | 564 ft | 2 kts | 316° |
| 2026-05-05 10:18 | 43.67979 | -79.61438 | 561 ft | 2 kts | 316° |
| 2026-05-05 10:18 | 43.67967 | -79.61424 | 571 ft | 2 kts | 329° |
| 2026-05-05 10:18 | 43.67953 | -79.61412 | 563 ft | 2 kts | 329° |
| 2026-05-05 10:18 | 43.67939 | -79.61401 | 571 ft | 2 kts | 336° |
| 2026-05-05 10:19 | 43.67924 | -79.61392 | 571 ft | 2 kts | 336° |
| 2026-05-05 10:19 | 43.67914 | -79.61386 | 570 ft | 2 kts | 336° |
| 2026-05-05 10:19 | 43.67918 | -79.61403 | 567 ft | 2 kts | 249° |
| 2026-05-05 10:19 | 43.67906 | -79.61418 | 561 ft | 2 kts | 226° |
| 2026-05-05 10:20 | 43.67895 | -79.61434 | 563 ft | 2 kts | 226° |
| 2026-05-05 10:20 | 43.67884 | -79.61450 | 565 ft | 2 kts | 229° |
| 2026-05-05 10:20 | 43.67880 | -79.61456 | 563 ft | 0 kts | 227° |
| 2026-05-05 10:24 | 43.67869 | -79.61473 | 565 ft | 7 kts | 228° |
| 2026-05-05 10:24 | 43.67804 | -79.61568 | 563 ft | 14 kts | 226° |
| 2026-05-05 10:24 | 43.67747 | -79.61671 | 561 ft | 16 kts | 257° |
| 2026-05-05 10:24 | 43.67810 | -79.61794 | 563 ft | 17 kts | 316° |
| 2026-05-05 10:25 | 43.67912 | -79.61900 | 565 ft | 15 kts | 335° |
| 2026-05-05 10:25 | 43.67979 | -79.61999 | 564 ft | 15 kts | 254° |
| 2026-05-05 10:25 | 43.67995 | -79.62135 | 563 ft | 16 kts | 319° |
| 2026-05-05 10:25 | 43.68088 | -79.62254 | 563 ft | 21 kts | 316° |
| 2026-05-05 10:26 | 43.68192 | -79.62388 | 566 ft | 21 kts | 316° |
| 2026-05-05 10:26 | 43.68306 | -79.62525 | 561 ft | 23 kts | 316° |
| 2026-05-05 10:26 | 43.68409 | -79.62662 | 561 ft | 25 kts | 317° |
| 2026-05-05 10:26 | 43.68540 | -79.62830 | 561 ft | 21 kts | 316° |
| 2026-05-05 10:27 | 43.68602 | -79.62910 | 561 ft | 9 kts | 317° |
| 2026-05-05 10:27 | 43.68655 | -79.62979 | 561 ft | 12 kts | 317° |
| 2026-05-05 10:27 | 43.68723 | -79.63068 | 561 ft | 15 kts | 316° |
| 2026-05-05 10:27 | 43.68806 | -79.63176 | 561 ft | 18 kts | 316° |
| 2026-05-05 10:28 | 43.68901 | -79.63301 | 561 ft | 20 kts | 316° |
| 2026-05-05 10:28 | 43.68992 | -79.63419 | 562 ft | 18 kts | 316° |
| 2026-05-05 10:28 | 43.69054 | -79.63501 | 568 ft | 8 kts | 316° |
| 2026-05-05 10:28 | 43.69106 | -79.63537 | 567 ft | 9 kts | 11° |
| 2026-05-05 10:29 | 43.69147 | -79.63485 | 567 ft | 0 kts | 47° |
| 2026-05-05 10:30 | 43.69150 | -79.63481 | 565 ft | 3 kts | 47° |
| 2026-05-05 10:30 | 43.69178 | -79.63447 | 566 ft | 12 kts | 32° |
| 2026-05-05 10:30 | 43.69295 | -79.63420 | 567 ft | 17 kts | 7° |
| 2026-05-05 10:31 | 43.69431 | -79.63310 | 566 ft | 24 kts | 17° |
| 2026-05-05 10:31 | 43.69486 | -79.63387 | 566 ft | 12 kts | 257° |
| 2026-05-05 10:31 | 43.69457 | -79.63442 | 566 ft | 8 kts | 228° |
| 2026-05-05 10:31 | 43.69307 | -79.63662 | 567 ft | 74 kts | 226° |
| 2026-05-05 10:32 | 43.68761 | -79.64448 | 572 ft | 149 kts | 223° |
| 2026-05-05 10:32 | 43.67934 | -79.65638 | 927 ft | 186 kts | 225° |
| 2026-05-05 10:32 | 43.67030 | -79.66989 | 1837 ft | 195 kts | 230° |
| 2026-05-05 10:32 | 43.66213 | -79.68559 | 2862 ft | 206 kts | 238° |
| 2026-05-05 10:33 | 43.65370 | -79.70254 | 3676 ft | 221 kts | 238° |
| 2026-05-05 10:33 | 43.64443 | -79.72049 | 4349 ft | 235 kts | 237° |
| 2026-05-05 10:33 | 43.63515 | -79.73816 | 4884 ft | 229 kts | 236° |
| 2026-05-05 10:33 | 43.62482 | -79.75463 | 4908 ft | 227 kts | 221° |
| 2026-05-05 10:34 | 43.61077 | -79.76512 | 4931 ft | 231 kts | 204° |
| 2026-05-05 10:34 | 43.59478 | -79.76940 | 5053 ft | 240 kts | 189° |
| 2026-05-05 10:34 | 43.57793 | -79.76692 | 4866 ft | 247 kts | 170° |
| 2026-05-05 10:34 | 43.56151 | -79.75782 | 4856 ft | 265 kts | 162° |
| 2026-05-05 10:35 | 43.54477 | -79.74663 | 5287 ft | 269 kts | 160° |
| 2026-05-05 10:35 | 43.52804 | -79.73362 | 6058 ft | 284 kts | 155° |
| 2026-05-05 10:35 | 43.51168 | -79.71898 | 7328 ft | 275 kts | 154° |
| 2026-05-05 10:35 | 43.49582 | -79.70433 | 8513 ft | 274 kts | 153° |
| 2026-05-05 10:36 | 43.48095 | -79.68758 | 9661 ft | 280 kts | 141° |
| 2026-05-05 10:36 | 43.46976 | -79.66425 | 10391 ft | 308 kts | 115° |
| 2026-05-05 10:36 | 43.46732 | -79.63412 | 10924 ft | 335 kts | 89° |
| 2026-05-05 10:36 | 43.47263 | -79.60208 | 11727 ft | 348 kts | 63° |
| 2026-05-05 10:37 | 43.48577 | -79.57414 | 12517 ft | 351 kts | 55° |
| 2026-05-05 10:37 | 43.49898 | -79.54666 | 13863 ft | 339 kts | 57° |
| 2026-05-05 10:37 | 43.51016 | -79.51789 | 14746 ft | 345 kts | 66° |
| 2026-05-05 10:37 | 43.51918 | -79.48644 | 15306 ft | 360 kts | 70° |
| 2026-05-05 10:38 | 43.52730 | -79.45337 | 16005 ft | 367 kts | 73° |
| 2026-05-05 10:38 | 43.53443 | -79.41965 | 16679 ft | 377 kts | 74° |
| 2026-05-05 10:38 | 43.54270 | -79.38483 | 17218 ft | 389 kts | 73° |
| 2026-05-05 10:38 | 43.55108 | -79.34890 | 17820 ft | 397 kts | 73° |
| 2026-05-05 10:39 | 43.55942 | -79.31232 | 18444 ft | 401 kts | 73° |
| 2026-05-05 10:39 | 43.56771 | -79.27543 | 19053 ft | 404 kts | 74° |
| 2026-05-05 10:39 | 43.57603 | -79.23816 | 19654 ft | 408 kts | 74° |
| 2026-05-05 10:39 | 43.58438 | -79.20060 | 20254 ft | 411 kts | 74° |
| 2026-05-05 10:40 | 43.59267 | -79.16325 | 20832 ft | 414 kts | 74° |
| 2026-05-05 10:40 | 43.60114 | -79.12501 | 21393 ft | 417 kts | 74° |
| 2026-05-05 10:40 | 43.60965 | -79.08650 | 21978 ft | 421 kts | 74° |
| 2026-05-05 10:40 | 43.61718 | -79.05237 | 22460 ft | 423 kts | 75° |
| 2026-05-05 10:41 | 43.62579 | -79.01333 | 23065 ft | 425 kts | 75° |
| 2026-05-05 10:41 | 43.63440 | -78.97416 | 23552 ft | 428 kts | 75° |
| 2026-05-05 10:41 | 43.64295 | -78.93520 | 23998 ft | 431 kts | 75° |
| 2026-05-05 10:41 | 43.65165 | -78.89548 | 24453 ft | 434 kts | 75° |
| 2026-05-05 10:42 | 43.66920 | -78.81518 | 25338 ft | 439 kts | 75° |
| 2026-05-05 10:42 | 43.67806 | -78.77451 | 25800 ft | 442 kts | 75° |
| 2026-05-05 10:42 | 43.68699 | -78.73350 | 26151 ft | 447 kts | 74° |
| 2026-05-05 10:43 | 43.69798 | -78.69373 | 26573 ft | 449 kts | 67° |
| 2026-05-05 10:43 | 43.71025 | -78.65375 | 27000 ft | 452 kts | 67° |
| 2026-05-05 10:43 | 43.72254 | -78.61376 | 27439 ft | 453 kts | 67° |
| 2026-05-05 10:43 | 43.73495 | -78.57340 | 27820 ft | 457 kts | 67° |
| 2026-05-05 10:44 | 43.74740 | -78.53286 | 28214 ft | 459 kts | 67° |
| 2026-05-05 10:44 | 43.75990 | -78.49205 | 28600 ft | 462 kts | 67° |
| 2026-05-05 10:44 | 43.77247 | -78.45103 | 28973 ft | 464 kts | 67° |
| 2026-05-05 10:44 | 43.78350 | -78.41490 | 29294 ft | 467 kts | 67° |
| 2026-05-05 10:45 | 43.79620 | -78.37331 | 29658 ft | 469 kts | 67° |
| 2026-05-05 10:45 | 43.80462 | -78.34567 | 29862 ft | 471 kts | 67° |
| 2026-05-05 10:45 | 43.82170 | -78.28957 | 30293 ft | 474 kts | 67° |
| 2026-05-05 10:45 | 43.83020 | -78.26157 | 30445 ft | 477 kts | 68° |
| 2026-05-05 10:46 | 43.84313 | -78.21897 | 30678 ft | 481 kts | 68° |
| 2026-05-05 10:46 | 43.85609 | -78.17618 | 31069 ft | 482 kts | 67° |
| 2026-05-05 10:46 | 43.87333 | -78.11915 | 31480 ft | 486 kts | 67° |
| 2026-05-05 10:46 | 43.88218 | -78.08982 | 31713 ft | 488 kts | 67° |
| 2026-05-05 10:47 | 43.89532 | -78.04622 | 32043 ft | 490 kts | 67° |
| 2026-05-05 10:47 | 43.90828 | -78.00313 | 32349 ft | 493 kts | 67° |
| 2026-05-05 10:47 | 43.92151 | -77.95909 | 32664 ft | 495 kts | 67° |
| 2026-05-05 10:47 | 43.93478 | -77.91483 | 33044 ft | 496 kts | 67° |
| 2026-05-05 10:48 | 43.94801 | -77.87062 | 33405 ft | 497 kts | 67° |
| 2026-05-05 10:48 | 43.96129 | -77.82616 | 33684 ft | 500 kts | 67° |
| 2026-05-05 10:48 | 43.97463 | -77.78143 | 33941 ft | 503 kts | 67° |
| 2026-05-05 10:48 | 43.98806 | -77.73630 | 34166 ft | 506 kts | 67° |
| 2026-05-05 10:49 | 44.00147 | -77.69120 | 34545 ft | 505 kts | 67° |
| 2026-05-05 10:49 | 44.01484 | -77.64612 | 34932 ft | 504 kts | 67° |
| 2026-05-05 10:49 | 44.02821 | -77.60098 | 35307 ft | 503 kts | 67° |
| 2026-05-05 10:49 | 44.04132 | -77.55662 | 35678 ft | 502 kts | 68° |
| 2026-05-05 10:50 | 44.05455 | -77.51183 | 36063 ft | 500 kts | 68° |
| 2026-05-05 10:50 | 44.06777 | -77.46698 | 36395 ft | 500 kts | 68° |
| 2026-05-05 10:50 | 44.08165 | -77.42257 | 36604 ft | 501 kts | 64° |
| 2026-05-05 10:51 | 44.10935 | -77.33996 | 36634 ft | 498 kts | 65° |
| 2026-05-05 10:51 | 44.13808 | -77.25281 | 36627 ft | 498 kts | 65° |
| 2026-05-05 10:52 | 44.16687 | -77.16511 | 36628 ft | 497 kts | 65° |
| 2026-05-05 10:52 | 44.19558 | -77.07737 | 36636 ft | 497 kts | 65° |
| 2026-05-05 10:53 | 44.22422 | -76.98954 | 36648 ft | 497 kts | 65° |
| 2026-05-05 10:53 | 44.25258 | -76.90228 | 36653 ft | 497 kts | 65° |
| 2026-05-05 10:54 | 44.28105 | -76.81438 | 36639 ft | 496 kts | 64° |
| 2026-05-05 10:54 | 44.30937 | -76.72667 | 36635 ft | 495 kts | 64° |
| 2026-05-05 10:55 | 44.33604 | -76.64378 | 36645 ft | 495 kts | 65° |
| 2026-05-05 10:55 | 44.36428 | -76.55575 | 36641 ft | 495 kts | 65° |
| 2026-05-05 10:56 | 44.39225 | -76.46827 | 36661 ft | 495 kts | 64° |
| 2026-05-05 10:56 | 44.42032 | -76.38017 | 36629 ft | 495 kts | 65° |
| 2026-05-05 10:57 | 44.44675 | -76.29695 | 36634 ft | 494 kts | 65° |
| 2026-05-05 10:57 | 44.47450 | -76.20933 | 36634 ft | 494 kts | 65° |
| 2026-05-05 10:58 | 44.50227 | -76.12114 | 36630 ft | 494 kts | 65° |
| 2026-05-05 10:58 | 44.52995 | -76.03304 | 36647 ft | 495 kts | 65° |
| 2026-05-05 10:59 | 44.55763 | -75.94462 | 36635 ft | 496 kts | 65° |
| 2026-05-05 10:59 | 44.58516 | -75.85640 | 36628 ft | 495 kts | 65° |
| 2026-05-05 11:00 | 44.61269 | -75.76784 | 36628 ft | 495 kts | 65° |
| 2026-05-05 11:00 | 44.64023 | -75.67901 | 36628 ft | 495 kts | 65° |
| 2026-05-05 11:01 | 44.66569 | -75.58891 | 36665 ft | 496 kts | 68° |
| 2026-05-05 11:01 | 44.69045 | -75.49876 | 36629 ft | 498 kts | 68° |
| 2026-05-05 11:02 | 44.71516 | -75.40771 | 36626 ft | 498 kts | 68° |
| 2026-05-05 11:02 | 44.74128 | -75.31820 | 36631 ft | 497 kts | 66° |
| 2026-05-05 11:03 | 44.76628 | -75.23313 | 36630 ft | 497 kts | 66° |
| 2026-05-05 11:03 | 44.79261 | -75.14307 | 36640 ft | 497 kts | 66° |
| 2026-05-05 11:04 | 44.81889 | -75.05282 | 36650 ft | 499 kts | 66° |
| 2026-05-05 11:04 | 44.84503 | -74.96275 | 36654 ft | 497 kts | 66° |
| 2026-05-05 11:05 | 44.87116 | -74.87238 | 36656 ft | 497 kts | 66° |
| 2026-05-05 11:05 | 44.89715 | -74.78216 | 36652 ft | 497 kts | 66° |
| 2026-05-05 11:06 | 44.92094 | -74.69115 | 36663 ft | 497 kts | 71° |
| 2026-05-05 11:06 | 44.94155 | -74.59779 | 36660 ft | 498 kts | 72° |
| 2026-05-05 11:07 | 44.96187 | -74.50432 | 36644 ft | 495 kts | 72° |
| 2026-05-05 11:07 | 44.98187 | -74.41193 | 36648 ft | 494 kts | 72° |
| 2026-05-05 11:08 | 44.99942 | -74.32354 | 36651 ft | 494 kts | 75° |
| 2026-05-05 11:08 | 45.01700 | -74.22943 | 36645 ft | 494 kts | 74° |
| 2026-05-05 11:09 | 45.03452 | -74.13586 | 36653 ft | 494 kts | 74° |
| 2026-05-05 11:09 | 45.05208 | -74.04167 | 36671 ft | 495 kts | 74° |
| 2026-05-05 11:10 | 45.06948 | -73.94787 | 36652 ft | 496 kts | 74° |
| 2026-05-05 11:10 | 45.07897 | -73.85158 | 36686 ft | 495 kts | 88° |
| 2026-05-05 11:11 | 45.08306 | -73.75466 | 36660 ft | 496 kts | 87° |
| 2026-05-05 11:11 | 45.08690 | -73.65699 | 36651 ft | 497 kts | 87° |
| 2026-05-05 11:12 | 45.09058 | -73.55906 | 36669 ft | 498 kts | 88° |
| 2026-05-05 11:12 | 45.09385 | -73.46366 | 36673 ft | 498 kts | 88° |
| 2026-05-05 11:13 | 45.09714 | -73.36636 | 36671 ft | 498 kts | 88° |
| 2026-05-05 11:13 | 45.10037 | -73.26843 | 36656 ft | 497 kts | 87° |
| 2026-05-05 11:14 | 45.10348 | -73.17139 | 36677 ft | 494 kts | 88° |
| 2026-05-05 11:14 | 45.10653 | -73.07406 | 36701 ft | 494 kts | 88° |
| 2026-05-05 11:15 | 45.10934 | -72.98165 | 36694 ft | 495 kts | 88° |
| 2026-05-05 11:15 | 45.11221 | -72.88478 | 36694 ft | 495 kts | 88° |
| 2026-05-05 11:16 | 45.11500 | -72.78753 | 36698 ft | 492 kts | 88° |
| 2026-05-05 11:16 | 45.11769 | -72.69085 | 36707 ft | 491 kts | 88° |
| 2026-05-05 11:17 | 45.12030 | -72.59472 | 36710 ft | 491 kts | 88° |
| 2026-05-05 11:17 | 45.12283 | -72.49805 | 36712 ft | 491 kts | 88° |
| 2026-05-05 11:18 | 45.12529 | -72.40124 | 36712 ft | 491 kts | 88° |
| 2026-05-05 11:18 | 45.12766 | -72.30448 | 36720 ft | 492 kts | 88° |
| 2026-05-05 11:19 | 45.12995 | -72.20760 | 36739 ft | 492 kts | 88° |
| 2026-05-05 11:19 | 45.13215 | -72.11130 | 36732 ft | 491 kts | 88° |
| 2026-05-05 11:20 | 45.13428 | -72.01443 | 36735 ft | 491 kts | 88° |
| 2026-05-05 11:20 | 45.13631 | -71.91812 | 36730 ft | 492 kts | 88° |
| 2026-05-05 11:21 | 45.13818 | -71.82646 | 36743 ft | 492 kts | 88° |
| 2026-05-05 11:21 | 45.14008 | -71.72928 | 36742 ft | 493 kts | 88° |
| 2026-05-05 11:22 | 45.14192 | -71.63231 | 36739 ft | 492 kts | 88° |
| 2026-05-05 11:22 | 45.14023 | -71.53617 | 36770 ft | 490 kts | 94° |
| 2026-05-05 11:23 | 45.13639 | -71.43955 | 36756 ft | 490 kts | 93° |
| 2026-05-05 11:23 | 45.13288 | -71.34361 | 36769 ft | 490 kts | 93° |
| 2026-05-05 11:24 | 45.12931 | -71.24708 | 36766 ft | 490 kts | 92° |
| 2026-05-05 11:24 | 45.12565 | -71.15059 | 36787 ft | 490 kts | 92° |
| 2026-05-05 11:25 | 45.12195 | -71.05480 | 36784 ft | 490 kts | 92° |
| 2026-05-05 11:25 | 45.11813 | -70.95842 | 36788 ft | 490 kts | 92° |
| 2026-05-05 11:26 | 45.11447 | -70.86759 | 36785 ft | 490 kts | 93° |
| 2026-05-05 11:26 | 45.11050 | -70.77117 | 36785 ft | 491 kts | 92° |
| 2026-05-05 11:27 | 45.10646 | -70.67524 | 36800 ft | 491 kts | 92° |
| 2026-05-05 11:27 | 45.10233 | -70.57895 | 36797 ft | 490 kts | 92° |
| 2026-05-05 11:28 | 45.09835 | -70.48795 | 36802 ft | 491 kts | 92° |
| 2026-05-05 11:28 | 45.09406 | -70.39161 | 36801 ft | 489 kts | 92° |
| 2026-05-05 11:29 | 45.08973 | -70.29619 | 36798 ft | 488 kts | 92° |
| 2026-05-05 11:29 | 45.08530 | -70.20018 | 36800 ft | 488 kts | 92° |
| 2026-05-05 11:30 | 45.08078 | -70.10427 | 36802 ft | 488 kts | 93° |
| 2026-05-05 11:30 | 45.07618 | -70.00824 | 36811 ft | 489 kts | 93° |
| 2026-05-05 11:31 | 45.07154 | -69.91308 | 36812 ft | 488 kts | 93° |
| 2026-05-05 11:31 | 45.06679 | -69.81724 | 36816 ft | 488 kts | 93° |
| 2026-05-05 11:32 | 45.06195 | -69.72131 | 36812 ft | 488 kts | 93° |
| 2026-05-05 11:32 | 45.05706 | -69.62589 | 36808 ft | 487 kts | 93° |
| 2026-05-05 11:33 | 45.05208 | -69.53034 | 36813 ft | 486 kts | 93° |
| 2026-05-05 11:33 | 45.04789 | -69.45117 | 36817 ft | 486 kts | 93° |
| 2026-05-05 11:34 | 45.04192 | -69.34018 | 36830 ft | 486 kts | 93° |
| 2026-05-05 11:34 | 45.03759 | -69.26069 | 36818 ft | 486 kts | 93° |
| 2026-05-05 11:35 | 45.03146 | -69.15019 | 36832 ft | 484 kts | 93° |
| 2026-05-05 11:35 | 45.02702 | -69.07109 | 36827 ft | 485 kts | 93° |
| 2026-05-05 11:36 | 45.02159 | -68.97601 | 36824 ft | 485 kts | 93° |
| 2026-05-05 11:36 | 45.01612 | -68.88140 | 36819 ft | 485 kts | 93° |
| 2026-05-05 11:37 | 45.01057 | -68.78680 | 36828 ft | 482 kts | 93° |
| 2026-05-05 11:37 | 45.00494 | -68.69230 | 36837 ft | 482 kts | 93° |
| 2026-05-05 11:38 | 44.99924 | -68.59784 | 36837 ft | 482 kts | 93° |
| 2026-05-05 11:38 | 44.99346 | -68.50332 | 36845 ft | 482 kts | 94° |
| 2026-05-05 11:39 | 44.98799 | -68.41502 | 36843 ft | 481 kts | 93° |
| 2026-05-05 11:39 | 44.98207 | -68.32083 | 36849 ft | 481 kts | 94° |
| 2026-05-05 11:40 | 44.97607 | -68.22661 | 36849 ft | 481 kts | 94° |
| 2026-05-05 11:40 | 44.97004 | -68.13311 | 36859 ft | 481 kts | 94° |
| 2026-05-05 11:41 | 44.96389 | -68.03894 | 36864 ft | 480 kts | 94° |
| 2026-05-05 11:41 | 44.95767 | -67.94499 | 36876 ft | 480 kts | 94° |
| 2026-05-05 11:42 | 44.95165 | -67.85502 | 36874 ft | 480 kts | 94° |
| 2026-05-05 11:42 | 44.94529 | -67.76122 | 36879 ft | 480 kts | 94° |
| 2026-05-05 11:43 | 44.93886 | -67.66748 | 36879 ft | 480 kts | 94° |
| 2026-05-05 11:43 | 44.93239 | -67.57435 | 36913 ft | 479 kts | 94° |
| 2026-05-05 11:44 | 44.92583 | -67.48054 | 36890 ft | 480 kts | 94° |
| 2026-05-05 11:44 | 44.91919 | -67.38672 | 36898 ft | 480 kts | 94° |
| 2026-05-05 11:45 | 44.91250 | -67.29326 | 36904 ft | 480 kts | 94° |
| 2026-05-05 11:45 | 44.90572 | -67.19960 | 36904 ft | 479 kts | 94° |
| 2026-05-05 11:46 | 44.90258 | -67.10588 | 36925 ft | 478 kts | 88° |
| 2026-05-05 11:46 | 44.90233 | -67.01266 | 36910 ft | 477 kts | 88° |
| 2026-05-05 11:47 | 44.90216 | -66.91898 | 36900 ft | 478 kts | 88° |
| 2026-05-05 11:47 | 44.90192 | -66.82522 | 36904 ft | 477 kts | 88° |
| 2026-05-05 11:48 | 44.90143 | -66.68544 | 36908 ft | 477 kts | 88° |
| 2026-05-05 11:48 | 44.90101 | -66.59172 | 36909 ft | 477 kts | 88° |
| 2026-05-05 11:49 | 44.90050 | -66.49813 | 36908 ft | 475 kts | 89° |
| 2026-05-05 11:49 | 44.90023 | -66.45224 | 36826 ft | 461 kts | 89° |
| 2026-05-05 11:49 | 44.89995 | -66.40754 | 36304 ft | 459 kts | 88° |
| 2026-05-05 11:50 | 44.89965 | -66.36236 | 35660 ft | 465 kts | 88° |
| 2026-05-05 11:50 | 44.89932 | -66.31645 | 34996 ft | 472 kts | 88° |
| 2026-05-05 11:50 | 44.89897 | -66.26957 | 34377 ft | 481 kts | 88° |
| 2026-05-05 11:50 | 44.89859 | -66.22222 | 33914 ft | 484 kts | 88° |
| 2026-05-05 11:51 | 44.89824 | -66.18126 | 33509 ft | 488 kts | 88° |
| 2026-05-05 11:51 | 44.89780 | -66.13143 | 32910 ft | 494 kts | 88° |
| 2026-05-05 11:51 | 44.89735 | -66.08279 | 32320 ft | 496 kts | 88° |
| 2026-05-05 11:51 | 44.89689 | -66.03495 | 31749 ft | 494 kts | 88° |
| 2026-05-05 11:52 | 44.89642 | -65.98805 | 31209 ft | 490 kts | 88° |
| 2026-05-05 11:52 | 44.89596 | -65.94337 | 30694 ft | 486 kts | 88° |
| 2026-05-05 11:52 | 44.89544 | -65.89581 | 30151 ft | 482 kts | 88° |
| 2026-05-05 11:52 | 44.89491 | -65.84872 | 29542 ft | 478 kts | 89° |
| 2026-05-05 11:53 | 44.89437 | -65.80176 | 28917 ft | 484 kts | 89° |
| 2026-05-05 11:53 | 44.89385 | -65.75935 | 28349 ft | 488 kts | 89° |
| 2026-05-05 11:53 | 44.89326 | -65.71130 | 27739 ft | 490 kts | 89° |
| 2026-05-05 11:53 | 44.89265 | -65.66382 | 27156 ft | 488 kts | 89° |
| 2026-05-05 11:54 | 44.89203 | -65.61625 | 26583 ft | 484 kts | 89° |
| 2026-05-05 11:54 | 44.89139 | -65.56880 | 26025 ft | 480 kts | 89° |
| 2026-05-05 11:54 | 44.89074 | -65.52188 | 25477 ft | 476 kts | 90° |
| 2026-05-05 11:54 | 44.89004 | -65.47531 | 24968 ft | 473 kts | 90° |
| 2026-05-05 11:55 | 44.88935 | -65.42969 | 24453 ft | 470 kts | 90° |
| 2026-05-05 11:55 | 44.88863 | -65.38366 | 23935 ft | 466 kts | 90° |
| 2026-05-05 11:55 | 44.88792 | -65.33806 | 23413 ft | 463 kts | 90° |
| 2026-05-05 11:55 | 44.88719 | -65.29290 | 22811 ft | 459 kts | 90° |
| 2026-05-05 11:56 | 44.88645 | -65.24815 | 22204 ft | 455 kts | 90° |
| 2026-05-05 11:56 | 44.88578 | -65.20863 | 21749 ft | 452 kts | 90° |
| 2026-05-05 11:56 | 44.88501 | -65.16448 | 21233 ft | 448 kts | 90° |
| 2026-05-05 11:56 | 44.88424 | -65.12077 | 20728 ft | 444 kts | 91° |
| 2026-05-05 11:57 | 44.88347 | -65.07795 | 20241 ft | 440 kts | 91° |
| 2026-05-05 11:57 | 44.88268 | -65.03490 | 19756 ft | 437 kts | 91° |
| 2026-05-05 11:57 | 44.88188 | -64.99234 | 19284 ft | 433 kts | 91° |
| 2026-05-05 11:57 | 44.88106 | -64.95012 | 18815 ft | 430 kts | 91° |
| 2026-05-05 11:58 | 44.88025 | -64.90825 | 18355 ft | 426 kts | 91° |
| 2026-05-05 11:58 | 44.87942 | -64.86661 | 17839 ft | 423 kts | 91° |
| 2026-05-05 11:58 | 44.87858 | -64.82528 | 17308 ft | 420 kts | 91° |
| 2026-05-05 11:58 | 44.87774 | -64.78479 | 16796 ft | 417 kts | 91° |
| 2026-05-05 11:59 | 44.87689 | -64.74398 | 16297 ft | 414 kts | 91° |
| 2026-05-05 11:59 | 44.87614 | -64.70893 | 16092 ft | 413 kts | 91° |
| 2026-05-05 11:59 | 44.87527 | -64.66848 | 15819 ft | 412 kts | 91° |
| 2026-05-05 11:59 | 44.87438 | -64.62824 | 15547 ft | 410 kts | 91° |
| 2026-05-05 12:00 | 44.87349 | -64.58817 | 15275 ft | 409 kts | 91° |
| 2026-05-05 12:00 | 44.87258 | -64.54812 | 15001 ft | 407 kts | 91° |
| 2026-05-05 12:00 | 44.87166 | -64.50828 | 14736 ft | 406 kts | 92° |
| 2026-05-05 12:00 | 44.87074 | -64.46903 | 14489 ft | 405 kts | 92° |
| 2026-05-05 12:01 | 44.86980 | -64.42931 | 14174 ft | 404 kts | 91° |
| 2026-05-05 12:01 | 44.86889 | -64.39152 | 13730 ft | 402 kts | 91° |
| 2026-05-05 12:01 | 44.86793 | -64.35223 | 13206 ft | 400 kts | 91° |
| 2026-05-05 12:01 | 44.86696 | -64.31312 | 12693 ft | 397 kts | 91° |
| 2026-05-05 12:02 | 44.86599 | -64.27428 | 12187 ft | 395 kts | 92° |
| 2026-05-05 12:02 | 44.86504 | -64.23624 | 11694 ft | 392 kts | 92° |
| 2026-05-05 12:02 | 44.86502 | -64.19790 | 11245 ft | 388 kts | 82° |
| 2026-05-05 12:02 | 44.87058 | -64.16134 | 11106 ft | 374 kts | 76° |
| 2026-05-05 12:03 | 44.87617 | -64.12617 | 11010 ft | 361 kts | 76° |
| 2026-05-05 12:03 | 44.88150 | -64.09216 | 10858 ft | 350 kts | 76° |
| 2026-05-05 12:03 | 44.88666 | -64.05901 | 10704 ft | 341 kts | 76° |
| 2026-05-05 12:03 | 44.89161 | -64.02709 | 10543 ft | 333 kts | 77° |
| 2026-05-05 12:04 | 44.89650 | -63.99554 | 10371 ft | 324 kts | 76° |
| 2026-05-05 12:04 | 44.90125 | -63.96478 | 10162 ft | 319 kts | 76° |
| 2026-05-05 12:04 | 44.90595 | -63.93426 | 9813 ft | 318 kts | 77° |
| 2026-05-05 12:04 | 44.91064 | -63.90381 | 9438 ft | 317 kts | 77° |
| 2026-05-05 12:05 | 44.91530 | -63.87342 | 9068 ft | 317 kts | 77° |
| 2026-05-05 12:05 | 44.91996 | -63.84304 | 8697 ft | 316 kts | 77° |
| 2026-05-05 12:05 | 44.92460 | -63.81270 | 8369 ft | 315 kts | 77° |
| 2026-05-05 12:05 | 44.92922 | -63.78248 | 8052 ft | 314 kts | 77° |
| 2026-05-05 12:06 | 44.93372 | -63.75292 | 7779 ft | 311 kts | 77° |
| 2026-05-05 12:06 | 44.93824 | -63.72318 | 7494 ft | 308 kts | 77° |
| 2026-05-05 12:06 | 44.94272 | -63.69371 | 7204 ft | 306 kts | 77° |
| 2026-05-05 12:06 | 44.94716 | -63.66442 | 6935 ft | 304 kts | 77° |
| 2026-05-05 12:07 | 44.95157 | -63.63530 | 6659 ft | 302 kts | 77° |
| 2026-05-05 12:07 | 44.95554 | -63.60902 | 6397 ft | 301 kts | 77° |
| 2026-05-05 12:07 | 44.96179 | -63.58112 | 6088 ft | 296 kts | 56° |
| 2026-05-05 12:07 | 44.97565 | -63.56075 | 5792 ft | 284 kts | 28° |
| 2026-05-05 12:08 | 44.99173 | -63.54554 | 5525 ft | 281 kts | 28° |
| 2026-05-05 12:08 | 45.00778 | -63.52989 | 5256 ft | 279 kts | 28° |
| 2026-05-05 12:08 | 45.02366 | -63.51429 | 5021 ft | 275 kts | 29° |
| 2026-05-05 12:08 | 45.03922 | -63.49893 | 4847 ft | 268 kts | 28° |
| 2026-05-05 12:09 | 45.05294 | -63.48122 | 4610 ft | 272 kts | 53° |
| 2026-05-05 12:09 | 45.05866 | -63.45628 | 4321 ft | 272 kts | 89° |
| 2026-05-05 12:09 | 45.05464 | -63.43108 | 4041 ft | 256 kts | 123° |
| 2026-05-05 12:09 | 45.04510 | -63.41062 | 3806 ft | 244 kts | 133° |
| 2026-05-05 12:10 | 45.03319 | -63.39529 | 3482 ft | 222 kts | 164° |
| 2026-05-05 12:10 | 45.02384 | -63.39140 | 3280 ft | 204 kts | 186° |
| 2026-05-05 12:10 | 45.01710 | -63.39158 | 3179 ft | 188 kts | 200° |
| 2026-05-05 12:10 | 45.00564 | -63.39717 | 3071 ft | 161 kts | 218° |
| 2026-05-05 12:11 | 44.99601 | -63.40422 | 2911 ft | 154 kts | 216° |
| 2026-05-05 12:11 | 44.98648 | -63.40998 | 2754 ft | 145 kts | 217° |
| 2026-05-05 12:11 | 44.97778 | -63.41682 | 2563 ft | 141 kts | 223° |
| 2026-05-05 12:11 | 44.96958 | -63.42442 | 2408 ft | 140 kts | 224° |
| 2026-05-05 12:12 | 44.96166 | -63.43228 | 2254 ft | 134 kts | 225° |
| 2026-05-05 12:12 | 44.95433 | -63.43954 | 2071 ft | 128 kts | 224° |
| 2026-05-05 12:12 | 44.94713 | -63.44637 | 2014 ft | 121 kts | 225° |
| 2026-05-05 12:12 | 44.94016 | -63.45307 | 1772 ft | 122 kts | 224° |
| 2026-05-05 12:13 | 44.93322 | -63.45990 | 1561 ft | 121 kts | 223° |
| 2026-05-05 12:13 | 44.92630 | -63.46657 | 1397 ft | 119 kts | 222° |
| 2026-05-05 12:13 | 44.92032 | -63.47299 | 1217 ft | 126 kts | 224° |
| 2026-05-05 12:13 | 44.91356 | -63.48029 | 1090 ft | 123 kts | 216° |
| 2026-05-05 12:14 | 44.90631 | -63.48731 | 921 ft | 129 kts | 216° |
| 2026-05-05 12:14 | 44.89924 | -63.49426 | 751 ft | 124 kts | 216° |
| 2026-05-05 12:14 | 44.89207 | -63.50112 | 601 ft | 128 kts | 214° |
| 2026-05-05 12:14 | 44.88486 | -63.50828 | 466 ft | 122 kts | 214° |
| 2026-05-05 12:15 | 44.87873 | -63.51433 | 453 ft | 85 kts | 215° |
| 2026-05-05 12:15 | 44.87561 | -63.51745 | 452 ft | 32 kts | 215° |
| 2026-05-05 12:15 | 44.87450 | -63.51946 | 452 ft | 21 kts | 258° |
| 2026-05-05 12:15 | 44.87494 | -63.52119 | 454 ft | 16 kts | 338° |
| 2026-05-05 12:16 | 44.87539 | -63.52094 | 454 ft | 9 kts | 36° |
| 2026-05-05 12:16 | 44.87633 | -63.52000 | 454 ft | 24 kts | 36° |
| 2026-05-05 12:16 | 44.87767 | -63.51867 | 454 ft | 27 kts | 35° |
| 2026-05-05 12:16 | 44.87902 | -63.51735 | 454 ft | 20 kts | 34° |
| 2026-05-05 12:17 | 44.88026 | -63.51613 | 454 ft | 23 kts | 37° |
| 2026-05-05 12:17 | 44.88165 | -63.51475 | 454 ft | 19 kts | 34° |
| 2026-05-05 12:17 | 44.88279 | -63.51363 | 454 ft | 21 kts | 35° |
| 2026-05-05 12:17 | 44.88393 | -63.51232 | 454 ft | 22 kts | 35° |
| 2026-05-05 12:18 | 44.88542 | -63.51226 | 454 ft | 23 kts | 349° |
| 2026-05-05 12:18 | 44.88664 | -63.51255 | 454 ft | 18 kts | 349° |
| 2026-05-05 12:18 | 44.88795 | -63.51298 | 454 ft | 13 kts | 321° |
| 2026-05-05 12:18 | 44.88814 | -63.51371 | 454 ft | 1 kts | 259° |
| 2026-05-05 12:19 | 44.88809 | -63.51394 | 454 ft | 4 kts | 258° |
| 2026-05-05 12:19 | 44.88806 | -63.51420 | 454 ft | 2 kts | 260° |
| 2026-05-05 12:19 | 44.88805 | -63.51428 | 454 ft | 0 kts | 260° |